Terminal Aerodrome Forecast
Issued by NWS St Louis, MO

Home | Current Version | Previous Version | Text Only | Print | Product List | Glossary On
Versions: 1 2 3 4 5 6 7 8 9 10 11 12 13 14 15 16 17 18 19 20 21 22 23 24 25
305
FTUS43 KLSX 250326 AAA
TAFCOU
TAF AMD
KCOU 250326Z 2503/2524 15007KT P6SM BKN060
     FM250500 31025G35KT 2SM +TSRA OVC020CB
     FM250600 VRB05KT 6SM -RA OVC040
      TEMPO 2506/2508 VRB15KT 3SM TSRA OVC015CB
     FM250900 23007KT P6SM BKN200
     FM251500 29006KT P6SM SCT035=

USA.gov is the U.S. government's official web portal to all federal, state and local government web resources and services.